Date,TemperatureHighF,TemperatureAvgF,TemperatureLowF,DewpointHighF,DewpointAvgF,DewpointLowF,HumidityHigh,HumidityAvg,HumidityLow,PressureMaxIn,PressureMinIn,WindSpeedMaxMPH,WindSpeedAvgMPH,GustSpeedMaxMPH,PrecipitationSumIn
2013-1-1,37.0,31.8,28.2,30.9,28.1,26.2,93,87,69,30.45,30.30,2,0,5,0.00
2013-1-2,43.8,33.8,30.3,28.1,25.6,22.5,83,72,43,30.30,30.14,2,0,6,0.00
2013-1-3,42.9,34.3,28.1,35.0,25.5,20.0,93,72,41,30.14,30.05,3,0,7,0.12
2013-1-4,45.8,41.4,37.2,43.2,39.6,35.4,96,93,89,30.26,30.10,3,1,7,0.03
2013-1-5,45.5,40.8,37.5,38.5,35.1,31.1,92,80,67,30.15,30.06,3,1,7,0.07
2013-1-6,41.6,39.0,36.6,38.9,37.0,35.3,95,93,87,30.13,29.93,3,1,10,0.15
2013-1-7,46.1,43.3,39.2,45.0,41.5,37.3,96,93,88,30.10,29.76,6,3,18,0.17
2013-1-8,49.8,44.4,39.3,47.0,42.1,36.9,96,92,83,30.10,29.68,6,2,22,0.33
2013-1-9,47.4,37.5,32.5,45.7,36.1,31.0,95,95,93,29.91,29.61,4,2,11,0.92
2013-1-10,34.3,32.8,28.2,32.8,31.2,26.7,94,94,93,30.07,29.89,1,0,4,0.02
2013-1-11,32.1,27.5,24.7,27.4,24.7,22.7,94,89,75,30.29,30.07,1,0,3,0.00
2013-1-12,32.5,27.0,24.2,25.5,23.1,20.9,90,85,70,30.40,30.27,2,0,6,0.00
2013-1-13,31.9,27.0,23.2,25.9,22.9,20.4,91,85,71,30.45,30.39,1,0,3,0.00
2013-1-14,33.2,31.1,29.0,27.9,25.8,23.3,87,81,71,30.52,30.42,1,0,3,0.00
2013-1-15,39.5,33.2,30.7,31.9,29.0,26.7,92,85,70,30.65,30.52,1,0,4,0.00
2013-1-16,37.9,32.0,29.0,31.7,29.1,27.2,94,89,74,30.63,30.47,2,0,5,0.01
2013-1-17,40.3,33.6,30.4,34.2,31.1,28.6,94,90,78,30.47,30.24,2,0,4,0.00
2013-1-18,38.2,32.8,29.3,33.4,30.1,27.8,95,90,82,30.29,30.21,2,0,6,0.00
2013-1-19,32.7,29.0,26.6,31.4,27.7,25.1,95,95,94,30.34,30.28,2,0,4,0.00
2013-1-20,36.6,30.9,26.3,34.8,29.2,24.6,96,93,89,30.35,30.21,3,1,5,0.00
2013-1-21,31.0,30.1,29.4,29.2,28.4,27.6,94,93,93,30.23,30.21,0,0,2,0.00
2013-1-22,42.2,35.4,28.7,36.0,30.5,25.1,95,83,53,30.10,29.86,2,0,3,0.00
2013-1-23,44.3,40.9,38.3,38.3,33.7,23.5,95,77,45,30.07,29.79,3,1,10,0.18
2013-1-24,43.2,39.3,34.3,39.9,35.9,32.8,95,88,69,30.16,30.00,2,0,11,0.16
2013-1-25,46.5,43.4,41.5,45.3,42.1,39.9,96,95,94,30.01,29.93,2,1,5,0.14
2013-1-30,45.2,44.0,41.5,44.4,43.0,40.4,97,96,96,30.33,30.26,3,1,11,0.24
2013-1-31,45.2,44.1,43.2,44.4,43.3,42.4,97,97,97,30.34,30.25,2,1,7,0.07